Pagina principale
METAR-TAF:

METAR-TAF

Aeroporti :

RAF

Holbeach, Inghilterra

latitudine: 52-52N, longitudine: 000-09E, altezza: 3 m

Osservazione

Il bollettino è stato emesso 1 ora e 12 minuti fa, alle 11:50 UTC
Vento 15 kt da est/nord-est
Temperature 16°C
Umidità 77%
Pressione 1032 hPa
Visibilità 10 km o più
Nuvoloso ad un'altezza di 2500 ft

METAR: EGYH 271150Z 07015KT 9999 BKN025 16/12 Q1032 RMK BLU

Ora: 14:02 (13:02 UTC)


TAF: mancante

Osservazioni e previsioni meteorologiche di più di 4000 aeroporti (messaggi METAR e TAF).

Le stazioni disponibili sono rappresentate dai dischi gialli e rossi sulla carta.

Puntare il mouse per vedere il nome della stazione.

Clicca sopra per visualizzare le osservazioni e previsioni meteorologiche.

Per cambiare la mappa : fare clic sui pulsanti verdi con una croce nera per ingrandire, il pulsante verde con un trattino per diminuire, o sulla freccia verde per le mappe adiacenti.


METAR-TAF: